Time;durP1;ratioP1;P1;durP2;ratioP2;P2;SDS_P1;SDS_P2;PMS_P1;PMS_P2;Temp;Humidity;BMP_temperature;BMP_pressure;BME280_temperature;BME280_humidity;BME280_pressure;Samples;Min_cycle;Max_cycle;Signal;HPM_P1;HPM_P2
2022/05/01 00:00:06;;;;;;;15.70;10.98;;;;;;;4.93;100.00;102579.34;4993377;28;20042;-79
2022/05/01 00:02:35;;;;;;;16.90;11.37;;;;;;;4.91;100.00;102575.75;4965183;28;20066;-79
2022/05/01 00:05:04;;;;;;;15.27;11.45;;;;;;;4.88;100.00;102573.91;4973272;28;20767;-79
2022/05/01 00:07:33;;;;;;;12.60;11.20;;;;;;;4.86;100.00;102575.53;4965554;28;20270;-80
2022/05/01 00:10:04;;;;;;;12.43;10.68;;;;;;;4.83;100.00;102575.34;4982560;28;20031;-79
2022/05/01 00:12:32;;;;;;;14.95;9.85;;;;;;;4.81;100.00;102561.31;4971789;28;20275;-80
2022/05/01 00:15:03;;;;;;;13.50;10.45;;;;;;;4.79;100.00;102576.00;4989784;28;20047;-78
2022/05/01 00:17:32;;;;;;;12.13;10.23;;;;;;;4.76;100.00;102568.88;4939795;28;20050;-79
2022/05/01 00:20:00;;;;;;;12.80;10.13;;;;;;;4.76;100.00;102571.50;4973100;28;20512;-79
2022/05/01 00:22:30;;;;;;;12.45;11.00;;;;;;;4.76;100.00;102573.22;4939450;28;20303;-79
2022/05/01 00:24:58;;;;;;;14.00;10.77;;;;;;;4.73;100.00;102566.13;4944417;28;20046;-79
2022/05/01 00:27:29;;;;;;;13.65;10.68;;;;;;;4.72;100.00;102566.03;4984076;28;20571;-79
2022/05/01 00:29:58;;;;;;;11.80;10.10;;;;;;;4.68;100.00;102563.25;5005009;28;20049;-78
2022/05/01 00:36:25;;;;;;;12.00;10.80;;;;;;;4.66;100.00;102556.16;4957379;28;20081;-79
2022/05/01 00:38:02;;;;;;;13.60;11.70;;;;;;;4.60;100.00;102566.25;4964269;28;20046;-81
2022/05/01 00:40:31;;;;;;;12.13;10.88;;;;;;;4.59;100.00;102567.97;4976175;28;20042;-81
2022/05/01 00:43:04;;;;;;;17.05;11.43;;;;;;;4.56;100.00;102565.19;4955809;28;20042;-80
2022/05/01 00:45:33;;;;;;;15.30;11.60;;;;;;;4.55;100.00;102576.44;4980474;28;20051;-80
2022/05/01 00:48:04;;;;;;;13.00;11.45;;;;;;;4.54;100.00;102569.44;4964869;28;20042;-78
2022/05/01 00:50:32;;;;;;;13.63;11.95;;;;;;;4.55;100.00;102568.59;4940513;28;20035;-81
2022/05/01 00:53:05;;;;;;;14.18;11.55;;;;;;;4.53;100.00;102562.41;4949958;28;20043;-81
2022/05/01 00:55:34;;;;;;;14.10;11.20;;;;;;;4.49;100.00;102569.16;4958315;28;20047;-81
2022/05/01 00:58:07;;;;;;;14.13;12.13;;;;;;;4.46;100.00;102563.78;4982656;28;20400;-80
2022/05/01 01:00:36;;;;;;;13.13;10.88;;;;;;;4.43;100.00;102558.38;4972141;28;20232;-81
2022/05/01 01:03:05;;;;;;;14.45;11.95;;;;;;;4.40;100.00;102562.53;4955065;28;20043;-80
2022/05/01 01:05:33;;;;;;;13.93;12.07;;;;;;;4.36;100.00;102560.56;4950810;28;20039;-81
2022/05/01 01:08:02;;;;;;;13.13;11.73;;;;;;;4.32;100.00;102556.00;4950140;28;20053;-80
2022/05/01 01:10:30;;;;;;;14.00;11.65;;;;;;;4.28;100.00;102558.44;4975769;28;20427;-80
2022/05/01 01:12:59;;;;;;;13.63;11.25;;;;;;;4.24;100.00;102551.25;4958163;28;20046;-80
2022/05/01 01:15:29;;;;;;;14.68;11.70;;;;;;;4.24;100.00;102561.69;4965523;28;20046;-80
2022/05/01 01:17:58;;;;;;;16.17;13.13;;;;;;;4.22;100.00;102562.41;4939032;28;20053;-80
2022/05/01 01:20:28;;;;;;;16.02;12.30;;;;;;;4.20;100.00;102558.81;4975229;28;20640;-80
2022/05/01 01:22:59;;;;;;;15.02;12.60;;;;;;;4.17;100.00;102569.97;4962862;28;20318;-80
2022/05/01 01:25:31;;;;;;;13.20;11.80;;;;;;;4.12;100.00;102561.00;4984487;28;20061;-80
2022/05/01 01:28:05;;;;;;;15.48;13.00;;;;;;;4.08;100.00;102570.38;4983465;28;20053;-80
2022/05/01 01:33:25;;;;;;;15.73;12.68;;;;;;;4.03;100.00;102566.59;4986583;28;20050;-79
2022/05/01 01:35:56;;;;;;;17.25;13.15;;;;;;;4.01;100.00;102568.22;4950773;28;20047;-80
2022/05/01 01:38:24;;;;;;;;;;;;;;;3.98;100.00;102565.41;4972848;28;20034;-79
2022/05/01 01:40:58;;;;;;;17.38;13.00;;;;;;;3.94;100.00;102560.84;4971220;28;20124;-80
2022/05/01 01:43:29;;;;;;;17.17;12.93;;;;;;;3.93;100.00;102565.97;4982232;28;20396;-80
2022/05/01 01:45:58;;;;;;;15.02;12.43;;;;;;;3.89;100.00;102557.06;4986248;28;20418;-80
2022/05/01 01:48:26;;;;;;;15.23;12.90;;;;;;;3.88;100.00;102566.59;4997714;28;20049;-80
2022/05/01 01:51:03;;;;;;;14.68;12.40;;;;;;;3.88;100.00;102563.97;4990476;28;20734;-79
2022/05/01 01:53:33;;;;;;;14.45;12.77;;;;;;;3.88;100.00;102556.16;4979527;28;20043;-80
2022/05/01 01:56:03;;;;;;;;;;;;;;;3.87;100.00;102554.34;4965622;28;20269;-78
2022/05/01 01:58:31;;;;;;;15.65;12.68;;;;;;;3.85;100.00;102562.91;4970002;28;19922;-80
2022/05/01 02:00:59;;;;;;;16.90;13.45;;;;;;;3.84;100.00;102556.81;4958744;28;20057;-80
2022/05/01 02:03:28;;;;;;;16.23;13.38;;;;;;;3.82;100.00;102558.41;4971304;28;20470;-80
2022/05/01 02:05:57;;;;;;;14.05;12.13;;;;;;;3.78;100.00;102561.66;4960743;28;20422;-80
2022/05/01 02:08:26;;;;;;;17.27;13.35;;;;;;;3.77;100.00;102565.06;4979746;28;20034;-80
2022/05/01 02:10:55;;;;;;;14.95;12.18;;;;;;;3.76;100.00;102562.38;4946908;28;20216;-80
2022/05/01 02:13:23;;;;;;;15.85;13.13;;;;;;;3.74;100.00;102551.84;4982945;28;20411;-80
2022/05/01 02:15:52;;;;;;;17.50;14.10;;;;;;;3.71;100.00;102555.19;4984641;28;20072;-81
2022/05/01 02:18:20;;;;;;;15.30;12.45;;;;;;;3.69;100.00;102559.41;4972424;28;20050;-79
2022/05/01 02:23:36;;;;;;;19.23;13.45;;;;;;;3.65;100.00;102551.34;4940993;28;20050;-79
2022/05/01 02:26:05;;;;;;;15.52;12.73;;;;;;;3.64;100.00;102547.81;4950218;28;20322;-80
2022/05/01 02:28:33;;;;;;;12.80;11.25;;;;;;;3.63;100.00;102548.63;4965536;28;20038;-80
2022/05/01 02:31:02;;;;;;;15.57;12.15;;;;;;;3.65;100.00;102553.94;4969889;28;20288;-80
2022/05/01 02:33:30;;;;;;;16.10;12.82;;;;;;;3.63;100.00;102552.91;4990762;28;20057;-80
2022/05/01 02:35:59;;;;;;;15.07;13.38;;;;;;;3.62;100.00;102545.94;4945292;28;20050;-80
2022/05/01 02:38:27;;;;;;;18.15;13.13;;;;;;;3.62;100.00;102554.63;5006219;28;20038;-80
2022/05/01 02:40:56;;;;;;;14.10;12.32;;;;;;;3.62;100.00;102546.81;4973340;28;20256;-80
2022/05/01 02:43:26;;;;;;;14.13;12.48;;;;;;;3.61;100.00;102549.31;4950825;28;20046;-80
2022/05/01 02:45:54;;;;;;;16.70;13.68;;;;;;;3.59;100.00;102550.94;4968033;28;20264;-80
2022/05/01 02:48:23;;;;;;;14.43;12.20;;;;;;;3.58;100.00;102547.44;4987115;28;20061;-80
2022/05/01 02:50:51;;;;;;;15.52;13.18;;;;;;;3.58;100.00;102547.44;4950196;28;20035;-81
2022/05/01 02:53:20;;;;;;;15.77;12.32;;;;;;;3.58;100.00;102546.56;4931811;28;20058;-78
2022/05/01 02:55:50;;;;;;;16.05;12.55;;;;;;;3.56;100.00;102545.56;4936860;28;20180;-78
2022/05/01 02:58:18;;;;;;;15.93;13.55;;;;;;;3.55;100.00;102548.97;4960344;28;20050;-78
2022/05/01 03:00:47;;;;;;;16.88;12.07;;;;;;;3.55;100.00;102541.16;4966043;28;20038;-79
2022/05/01 03:03:15;;;;;;;18.88;13.00;;;;;;;3.54;100.00;102548.09;4968070;28;20538;-79
2022/05/01 03:05:43;;;;;;;15.63;12.90;;;;;;;3.51;100.00;102540.97;4968108;28;20042;-79
2022/05/01 03:08:12;;;;;;;17.20;13.20;;;;;;;3.49;100.00;102539.97;4962448;28;20061;-78
2022/05/01 03:10:40;;;;;;;15.52;12.38;;;;;;;3.46;100.00;102539.81;4968704;28;20046;-79
2022/05/01 03:13:10;;;;;;;13.05;11.65;;;;;;;3.44;100.00;102546.66;4989416;28;20400;-79
2022/05/01 03:15:39;;;;;;;15.85;11.23;;;;;;;3.44;100.00;102543.13;4914297;28;20055;-79
2022/05/01 03:23:41;;;;;;;12.13;10.82;;;;;;;3.42;100.00;102535.22;4961760;28;20046;-78
2022/05/01 03:26:10;;;;;;;14.07;11.30;;;;;;;3.42;100.00;102532.63;4947663;28;20054;-79
2022/05/01 03:28:39;;;;;;;13.60;10.38;;;;;;;3.41;100.00;102532.53;4970626;28;20049;-81
2022/05/01 03:31:09;;;;;;;13.48;11.50;;;;;;;3.42;100.00;102531.69;4963419;28;20673;-81
2022/05/01 03:33:38;;;;;;;12.10;10.85;;;;;;;3.40;100.00;102530.72;4970276;28;20049;-81
2022/05/01 03:36:08;;;;;;;13.20;11.05;;;;;;;3.39;100.00;102527.22;4978813;28;20535;-79
2022/05/01 03:38:37;;;;;;;15.07;10.65;;;;;;;3.39;100.00;102519.41;4934856;28;20122;-81
2022/05/01 03:41:08;;;;;;;11.90;10.77;;;;;;;3.39;100.00;102522.00;4987832;28;20342;-80
2022/05/01 03:43:37;;;;;;;13.77;11.88;;;;;;;3.37;100.00;102513.19;4987181;28;20048;-81
2022/05/01 03:46:05;;;;;;;14.93;11.13;;;;;;;3.34;100.00;102517.34;4963137;28;20058;-80
2022/05/01 03:48:34;;;;;;;13.05;11.18;;;;;;;3.31;100.00;102512.84;5003692;28;20051;-81
2022/05/01 03:51:03;;;;;;;12.10;10.73;;;;;;;3.29;100.00;102517.06;4984965;28;20043;-81
2022/05/01 03:53:32;;;;;;;12.48;10.68;;;;;;;3.28;100.00;102517.88;4979919;28;20039;-78
2022/05/01 03:56:00;;;;;;;11.48;10.25;;;;;;;3.26;100.00;102520.38;4966385;28;20164;-80
2022/05/01 03:58:29;;;;;;;11.65;10.43;;;;;;;3.25;100.00;102518.59;4964788;28;20412;-80
2022/05/01 04:00:58;;;;;;;12.57;10.63;;;;;;;3.25;100.00;102523.81;4931584;28;20085;-80
2022/05/01 04:03:27;;;;;;;11.65;10.45;;;;;;;3.24;100.00;102523.72;4968038;28;20035;-80
2022/05/01 04:05:55;;;;;;;11.93;10.48;;;;;;;3.24;100.00;102529.81;4949784;28;20046;-80
2022/05/01 04:08:24;;;;;;;11.48;10.27;;;;;;;3.24;100.00;102519.38;4969769;28;20396;-80
2022/05/01 04:10:52;;;;;;;11.13;9.93;;;;;;;3.23;100.00;102525.41;4978517;28;20245;-81
2022/05/01 04:13:21;;;;;;;11.90;8.95;;;;;;;3.23;100.00;102533.25;4966490;28;20043;-80
2022/05/01 04:15:50;;;;;;;10.75;9.60;;;;;;;3.23;100.00;102530.63;4948605;28;20295;-80
2022/05/01 04:18:18;;;;;;;10.80;9.57;;;;;;;3.24;100.00;102534.13;4925011;28;20039;-80
2022/05/01 04:20:47;;;;;;;11.32;8.82;;;;;;;3.25;100.00;102530.69;4951295;28;20042;-78
2022/05/01 04:23:16;;;;;;;10.15;9.15;;;;;;;3.26;100.00;102530.78;4994026;28;20046;-79
2022/05/01 04:25:45;;;;;;;9.35;8.45;;;;;;;3.26;100.00;102540.31;4971602;28;20071;-80
2022/05/01 04:28:13;;;;;;;9.48;8.57;;;;;;;3.28;100.00;102534.38;4983547;28;20100;-79
2022/05/01 04:30:41;;;;;;;9.48;8.55;;;;;;;3.30;100.00;102537.09;4996857;28;20039;-80
2022/05/01 04:33:13;;;;;;;8.80;7.90;;;;;;;3.28;100.00;102544.81;4962137;28;20034;-80
2022/05/01 04:35:47;;;;;;;10.15;8.25;;;;;;;3.28;100.00;102536.09;4989227;28;20038;-81
2022/05/01 04:38:21;;;;;;;9.85;8.95;;;;;;;3.31;100.00;102542.41;4970966;28;20522;-80
2022/05/01 04:40:54;;;;;;;8.55;7.75;;;;;;;3.34;100.00;102531.25;4977963;28;20280;-81
2022/05/01 04:43:24;;;;;;;8.27;7.45;;;;;;;3.39;100.00;102535.03;4990702;28;20038;-79
2022/05/01 04:45:56;;;;;;;8.63;7.82;;;;;;;3.51;100.00;102543.56;4976428;28;20034;-79
2022/05/01 04:48:26;;;;;;;8.85;8.05;;;;;;;4.11;100.00;102546.16;4955475;28;20407;-80
2022/05/01 04:50:54;;;;;;;8.00;7.20;;;;;;;4.84;100.00;102540.59;4970322;28;20358;-79
2022/05/01 04:53:23;;;;;;;8.15;7.45;;;;;;;5.51;100.00;102535.38;4977396;28;20039;-79
2022/05/01 04:55:54;;;;;;;7.35;6.75;;;;;;;5.98;100.00;102538.59;4961418;28;20436;-81
2022/05/01 04:58:23;;;;;;;6.95;6.38;;;;;;;6.35;100.00;102532.50;5005714;28;20034;-80
2022/05/01 05:00:52;;;;;;;6.60;6.10;;;;;;;6.58;100.00;102541.47;4983710;28;20363;-80
2022/05/01 05:03:20;;;;;;;7.15;6.22;;;;;;;6.61;100.00;102537.25;4981244;28;20511;-80
2022/05/01 05:05:49;;;;;;;7.35;6.72;;;;;;;6.76;100.00;102541.41;4954759;28;20058;-81
2022/05/01 05:11:05;;;;;;;6.75;6.15;;;;;;;7.05;100.00;102534.88;4968086;28;20395;-81
2022/05/01 05:13:35;;;;;;;6.53;5.93;;;;;;;7.38;100.00;102538.06;4977845;28;20300;-80
2022/05/01 05:16:08;;;;;;;8.13;5.88;;;;;;;7.80;100.00;102551.22;4985721;28;20050;-81
2022/05/01 05:18:37;;;;;;;6.05;5.55;;;;;;;8.24;100.00;102542.47;4954740;28;20046;-80
2022/05/01 05:21:06;;;;;;;7.25;6.55;;;;;;;8.74;100.00;102539.22;4962738;28;20058;-78
2022/05/01 05:23:35;;;;;;;6.88;6.28;;;;;;;9.17;100.00;102542.53;4937209;28;20408;-81
2022/05/01 05:26:04;;;;;;;7.07;6.38;;;;;;;9.11;100.00;102544.94;4966561;28;20051;-81
2022/05/01 05:28:32;;;;;;;7.03;6.43;;;;;;;8.89;100.00;102538.91;4982608;28;20593;-78
2022/05/01 05:31:00;;;;;;;9.32;8.48;;;;;;;9.17;100.00;102542.53;4987907;28;20038;-81
2022/05/01 05:33:29;;;;;;;7.90;7.20;;;;;;;9.74;100.00;102542.78;4959310;28;20152;-78
2022/05/01 05:35:58;;;;;;;12.65;8.55;;;;;;;10.24;100.00;102542.63;4939799;28;20038;-78
2022/05/01 05:38:26;;;;;;;8.80;7.90;;;;;;;10.39;100.00;102544.88;4970040;28;20275;-78
2022/05/01 05:40:54;;;;;;;8.45;7.38;;;;;;;10.32;100.00;102549.09;4987919;28;20050;-78
2022/05/01 05:43:23;;;;;;;9.98;8.27;;;;;;;10.43;100.00;102546.75;4976539;28;20359;-79
2022/05/01 05:45:52;;;;;;;9.68;8.00;;;;;;;10.43;100.00;102549.41;4988499;28;20059;-78
2022/05/01 05:48:20;;;;;;;9.65;8.68;;;;;;;10.24;100.00;102541.75;4966046;28;20042;-79
2022/05/01 05:50:48;;;;;;;9.05;8.15;;;;;;;10.32;100.00;102548.16;4951712;28;20055;-82
2022/05/01 05:53:17;;;;;;;8.95;8.00;;;;;;;10.33;100.00;102540.31;4963814;28;20039;-78
2022/05/01 05:55:46;;;;;;;9.73;7.65;;;;;;;10.37;100.00;102549.22;4980294;28;20054;-78
2022/05/01 05:58:15;;;;;;;8.27;7.35;;;;;;;10.50;100.00;102545.22;4944126;28;20042;-78
2022/05/01 06:00:43;;;;;;;9.10;7.53;;;;;;;10.74;100.00;102542.44;4969778;28;20050;-79
2022/05/01 06:03:12;;;;;;;10.07;7.30;;;;;;;10.82;100.00;102540.91;4939313;28;20057;-78
2022/05/01 06:05:40;;;;;;;7.78;6.88;;;;;;;10.96;100.00;102553.59;4982582;28;20054;-79
2022/05/01 06:08:09;;;;;;;8.48;7.35;;;;;;;11.02;100.00;102545.84;4964944;28;20050;-81
2022/05/01 06:10:40;;;;;;;8.65;6.82;;;;;;;11.04;100.00;102546.78;4950167;28;20081;-78
2022/05/01 06:13:09;;;;;;;7.35;6.65;;;;;;;11.04;100.00;102549.44;4962002;28;20053;-79
2022/05/01 06:15:38;;;;;;;7.13;6.07;;;;;;;11.04;100.00;102555.63;4953157;28;20065;-77
2022/05/01 06:18:06;;;;;;;6.78;6.18;;;;;;;10.98;99.01;102547.50;4978532;28;20046;-78
2022/05/01 06:20:35;;;;;;;7.13;6.53;;;;;;;10.95;98.06;102544.81;4953203;28;20283;-78
2022/05/01 06:23:04;;;;;;;7.13;6.32;;;;;;;10.87;97.68;102549.84;4979143;28;20053;-79
2022/05/01 06:25:35;;;;;;;8.85;6.50;;;;;;;10.71;96.39;102551.13;4959770;28;20031;-79
2022/05/01 06:28:03;;;;;;;8.73;6.95;;;;;;;10.56;96.76;102555.06;4975440;28;20043;-80
2022/05/01 06:30:32;;;;;;;8.25;6.20;;;;;;;10.45;97.09;102558.28;4993000;28;20140;-81
2022/05/01 06:33:01;;;;;;;8.13;7.35;;;;;;;10.43;97.73;102561.69;4989962;28;20376;-79
2022/05/01 06:35:31;;;;;;;9.18;7.43;;;;;;;10.45;98.64;102553.00;5002251;28;20838;-79
2022/05/01 06:37:59;;;;;;;9.77;7.25;;;;;;;10.54;98.83;102561.16;4977568;28;20058;-79
2022/05/01 06:40:28;;;;;;;7.65;6.85;;;;;;;10.65;99.03;102550.06;4951909;28;20078;-80
2022/05/01 06:42:57;;;;;;;8.00;7.25;;;;;;;10.75;98.96;102557.41;4964773;28;20050;-79
2022/05/01 06:45:25;;;;;;;7.60;6.85;;;;;;;10.76;98.18;102551.28;4961207;28;20047;-80
2022/05/01 06:47:54;;;;;;;7.78;6.88;;;;;;;10.65;98.40;102548.31;4989382;28;20042;-80
2022/05/01 06:50:23;;;;;;;7.97;6.60;;;;;;;10.56;98.91;102562.97;4953335;28;20522;-78
2022/05/01 06:52:52;;;;;;;7.55;6.72;;;;;;;10.46;98.51;102557.41;4983658;28;20050;-79
2022/05/01 06:55:23;;;;;;;9.80;6.65;;;;;;;10.34;98.13;102559.69;4961753;28;20162;-80
2022/05/01 06:57:52;;;;;;;7.95;6.57;;;;;;;10.26;98.20;102550.59;4968358;28;20057;-79
2022/05/01 07:00:21;;;;;;;9.88;6.85;;;;;;;10.18;98.92;102560.88;4976929;28;20562;-80
2022/05/01 07:02:52;;;;;;;11.55;8.07;;;;;;;10.10;98.98;102552.72;4970137;28;20034;-80
2022/05/01 07:05:21;;;;;;;8.38;6.57;;;;;;;10.07;99.97;102555.25;4965988;28;20063;-81
2022/05/01 07:07:51;;;;;;;9.00;6.18;;;;;;;10.04;99.86;102557.81;4987497;28;20062;-81
2022/05/01 07:10:19;;;;;;;7.85;5.68;;;;;;;10.05;99.07;102558.69;4974289;28;20085;-81
2022/05/01 07:12:48;;;;;;;6.82;6.15;;;;;;;10.09;99.44;102552.69;4976248;28;20496;-80
2022/05/01 07:15:16;;;;;;;9.35;5.90;;;;;;;10.18;99.91;102562.63;4947288;28;20054;-79
2022/05/01 07:17:45;;;;;;;5.97;5.00;;;;;;;10.33;99.90;102557.88;4966805;28;20046;-77
2022/05/01 07:20:13;;;;;;;6.30;3.55;;;;;;;10.57;99.91;102559.47;4975061;28;20065;-79
2022/05/01 07:22:46;;;;;;;5.15;4.13;;;;;;;10.75;98.71;102556.50;4989617;28;20051;-79
2022/05/01 07:25:15;;;;;;;4.82;4.45;;;;;;;10.96;98.68;102557.13;4916321;28;20399;-79
2022/05/01 07:27:44;;;;;;;6.53;4.20;;;;;;;11.19;98.00;102552.53;5001379;28;20399;-79
2022/05/01 07:30:13;;;;;;;6.20;5.60;;;;;;;11.45;97.54;102547.03;4975698;28;20054;-79
2022/05/01 07:32:41;;;;;;;5.45;5.05;;;;;;;11.69;96.37;102555.63;4960539;28;20514;-79
2022/05/01 07:35:10;;;;;;;6.03;5.13;;;;;;;11.83;94.94;102555.06;4937097;28;20046;-79
2022/05/01 07:37:38;;;;;;;6.55;4.63;;;;;;;11.95;93.53;102552.78;4984582;28;20050;-79
2022/05/01 07:40:09;;;;;;;3.60;3.25;;;;;;;12.01;90.58;102557.31;4973151;28;20038;-79
2022/05/01 07:42:37;;;;;;;5.00;4.60;;;;;;;11.91;89.61;102556.22;4950242;28;20043;-79
2022/05/01 07:45:06;;;;;;;7.53;4.50;;;;;;;11.77;89.73;102563.72;4969923;28;20051;-80
2022/05/01 07:47:35;;;;;;;4.85;4.40;;;;;;;11.58;90.42;102557.06;4957580;28;20548;-80
2022/05/01 07:50:06;;;;;;;5.45;4.95;;;;;;;11.48;90.48;102555.94;4965210;28;20395;-79
2022/05/01 07:52:35;;;;;;;5.10;4.47;;;;;;;11.29;89.72;102559.84;4963940;28;20038;-79
2022/05/01 07:55:05;;;;;;;6.13;4.10;;;;;;;11.20;90.21;102554.28;4976524;28;20059;-78
2022/05/01 07:57:33;;;;;;;6.80;4.80;;;;;;;11.16;90.90;102557.72;4958070;28;20159;-80
2022/05/01 08:00:03;;;;;;;6.10;5.50;;;;;;;11.18;91.00;102561.28;4953573;28;20057;-80
2022/05/01 08:05:24;;;;;;;5.95;5.03;;;;;;;11.20;90.38;102556.06;4971094;28;20038;-79
2022/05/01 08:07:53;;;;;;;7.47;4.65;;;;;;;11.17;90.10;102556.88;4934416;28;20050;-78
2022/05/01 08:10:22;;;;;;;4.97;4.35;;;;;;;11.17;89.99;102551.59;4977754;28;20336;-79
2022/05/01 08:12:52;;;;;;;5.80;4.25;;;;;;;11.12;89.78;102546.16;4972961;28;20054;-79
2022/05/01 08:15:20;;;;;;;10.18;4.70;;;;;;;11.04;89.59;102546.78;4980851;28;20057;-79
2022/05/01 08:17:49;;;;;;;5.20;4.80;;;;;;;10.99;89.81;102543.16;4985086;28;20062;-79
2022/05/01 08:23:16;;;;;;;7.93;4.57;;;;;;;10.87;90.37;102552.50;4983610;28;20054;-80
2022/05/01 08:25:44;;;;;;;5.40;4.47;;;;;;;10.86;91.10;102553.34;4979476;28;20403;-80
2022/05/01 08:28:16;;;;;;;6.95;5.25;;;;;;;10.86;90.59;102542.78;4953525;28;20058;-80
2022/05/01 08:30:45;;;;;;;8.25;5.03;;;;;;;10.82;90.92;102553.22;4983440;28;20046;-80
2022/05/01 08:33:13;;;;;;;6.65;4.80;;;;;;;10.81;91.40;102548.78;4976270;28;20427;-80
2022/05/01 08:35:42;;;;;;;6.55;4.20;;;;;;;10.93;92.32;102550.03;4967492;28;20054;-80
2022/05/01 08:38:10;;;;;;;7.38;4.47;;;;;;;11.18;92.36;102542.81;4941571;28;20043;-79
2022/05/01 08:40:39;;;;;;;4.93;4.30;;;;;;;11.40;90.91;102544.31;4964470;28;20054;-80
2022/05/01 08:43:08;;;;;;;6.75;4.55;;;;;;;11.58;90.70;102546.50;4959265;28;20050;-80
2022/05/01 08:45:52;;;;;;;5.32;3.85;;;;;;;11.85;90.12;102542.78;4966168;28;20054;-80
2022/05/01 08:48:44;;;;;;;4.30;3.70;;;;;;;12.08;89.92;102544.31;4981686;28;20519;-79
2022/05/01 08:51:16;;;;;;;3.75;3.38;;;;;;;12.21;88.49;102534.91;4962642;28;20053;-79
2022/05/01 08:53:45;;;;;;;4.53;3.95;;;;;;;12.26;88.28;102537.66;4965728;28;20038;-80
2022/05/01 08:56:14;;;;;;;4.15;3.60;;;;;;;12.25;87.47;102541.16;4963310;28;20054;-80
2022/05/01 08:58:43;;;;;;;5.57;3.92;;;;;;;12.21;87.26;102540.19;4936753;28;20511;-80
2022/05/01 09:01:12;;;;;;;4.80;4.00;;;;;;;12.15;86.72;102540.03;4962169;28;20050;-80
2022/05/01 09:03:44;;;;;;;6.85;3.33;;;;;;;12.01;86.40;102530.91;4969592;28;20034;-79
2022/05/01 09:06:13;;;;;;;7.47;4.28;;;;;;;11.86;86.80;102545.47;4973229;28;20035;-80
2022/05/01 09:08:41;;;;;;;5.60;3.33;;;;;;;11.76;87.42;102547.84;4984657;28;20068;-79
2022/05/01 09:14:06;;;;;;;4.60;3.20;;;;;;;11.49;87.35;102543.63;4957577;28;20054;-80
2022/05/01 09:16:39;;;;;;;3.25;2.95;;;;;;;11.44;88.66;102542.63;4982077;28;20400;-80
2022/05/01 09:19:07;;;;;;;4.82;3.25;;;;;;;11.44;88.28;102545.28;4967869;28;20042;-80
2022/05/01 09:21:50;;;;;;;4.53;3.50;;;;;;;11.40;87.57;102538.09;4977429;28;20049;-80
2022/05/01 09:24:29;;;;;;;3.58;2.97;;;;;;;11.44;88.22;102540.00;4976783;28;20253;-80
2022/05/01 09:26:58;;;;;;;3.83;3.03;;;;;;;11.57;88.58;102542.09;4965090;28;20507;-80
2022/05/01 09:29:34;;;;;;;3.63;2.67;;;;;;;11.78;88.19;102543.50;4962447;28;20077;-80
2022/05/01 09:32:03;;;;;;;6.47;3.05;;;;;;;12.00;86.91;102539.66;4979346;28;20407;-80
2022/05/01 09:34:37;;;;;;;4.83;3.50;;;;;;;12.16;86.98;102541.84;4956072;28;20266;-79
2022/05/01 09:37:18;;;;;;;3.63;2.65;;;;;;;12.29;86.09;102538.63;4968747;28;20041;-80
2022/05/01 09:39:49;;;;;;;3.22;2.92;;;;;;;12.38;85.51;102530.03;4966793;28;20046;-80
2022/05/01 09:42:21;;;;;;;4.43;3.33;;;;;;;12.42;84.55;102542.44;4933592;28;20034;-83
2022/05/01 09:45:14;;;;;;;3.30;3.00;;;;;;;12.59;84.67;102532.25;4939906;28;20057;-82
2022/05/01 09:47:45;;;;;;;4.70;3.05;;;;;;;12.71;84.28;102528.06;4992363;28;20042;-82
2022/05/01 09:50:14;;;;;;;3.25;2.95;;;;;;;12.80;84.30;102520.34;4989468;28;20065;-79
2022/05/01 09:53:01;;;;;;;5.28;3.60;;;;;;;12.91;83.73;102517.88;4985057;28;20038;-81
2022/05/01 09:55:30;;;;;;;3.17;2.38;;;;;;;13.00;82.76;102515.44;4973453;28;20240;-81
2022/05/01 09:58:06;;;;;;;3.83;2.65;;;;;;;13.03;81.63;102518.16;4972924;28;20042;-81
2022/05/01 10:00:36;;;;;;;3.80;2.60;;;;;;;13.08;82.08;102519.13;4956384;28;20626;-81
2022/05/01 10:03:18;;;;;;;;;;;;;;;13.10;80.52;102520.06;4992830;28;20038;-82
2022/05/01 10:05:49;;;;;;;5.15;2.83;;;;;;;13.18;82.06;102529.03;5008058;28;19922;-82
2022/05/01 10:08:18;;;;;;;5.10;2.80;;;;;;;13.26;81.81;102521.22;4971955;28;20039;-82
2022/05/01 10:10:49;;;;;;;4.43;2.77;;;;;;;13.30;81.01;102517.81;5001572;28;20046;-81
2022/05/01 10:13:19;;;;;;;8.02;3.08;;;;;;;13.32;81.61;102515.19;4974648;28;20416;-81
2022/05/01 10:16:08;;;;;;;5.55;2.67;;;;;;;13.38;81.06;102517.94;4962281;28;20058;-81
2022/05/01 10:18:38;;;;;;;4.55;3.08;;;;;;;13.37;80.30;102508.22;4986258;28;20053;-81
2022/05/01 10:21:28;;;;;;;2.33;2.13;;;;;;;13.25;79.52;102511.50;4951908;28;20452;-82
2022/05/01 10:23:57;;;;;;;2.95;2.60;;;;;;;13.11;79.90;102508.59;4959396;28;20057;-82
2022/05/01 10:26:30;;;;;;;2.92;2.60;;;;;;;13.17;80.06;102497.22;4964164;28;20042;-82
2022/05/01 10:29:19;;;;;;;3.25;2.72;;;;;;;13.21;79.87;102512.31;4999705;28;20039;-82
2022/05/01 10:32:21;;;;;;;4.35;3.05;;;;;;;13.27;80.28;102507.16;4949106;28;20526;-82
2022/05/01 10:35:54;;;;;;;6.70;2.70;;;;;;;13.33;78.60;102501.09;4979235;28;20031;-81
2022/05/01 10:38:48;;;;;;;5.85;2.63;;;;;;;13.35;78.09;102502.03;4966191;28;23434;-81
2022/05/01 10:41:17;;;;;;;7.07;2.70;;;;;;;13.47;78.47;102498.69;5007364;28;20335;-82
2022/05/01 10:43:57;;;;;;;8.68;2.78;;;;;;;13.50;77.87;102494.34;4943625;28;20057;-81
2022/05/01 10:46:28;;;;;;;4.18;2.97;;;;;;;13.59;77.67;102491.84;4940791;28;20253;-82
2022/05/01 10:49:00;;;;;;;2.33;1.90;;;;;;;13.73;78.19;102497.38;4969393;28;20038;-81
2022/05/01 10:51:36;;;;;;;3.25;2.33;;;;;;;13.80;77.80;102491.31;4973299;28;20054;-82
2022/05/01 10:54:17;;;;;;;4.28;2.38;;;;;;;13.86;77.17;102492.28;4988101;28;20038;-82
2022/05/01 10:56:48;;;;;;;2.95;2.63;;;;;;;13.76;76.93;102492.13;4973374;28;20035;-81
2022/05/01 10:59:39;;;;;;;2.95;2.58;;;;;;;13.70;76.48;102496.44;4959104;28;20042;-82
2022/05/01 11:02:24;;;;;;;4.18;2.40;;;;;;;13.63;76.74;102496.34;4971412;28;20050;-82
2022/05/01 11:04:55;;;;;;;4.32;2.53;;;;;;;13.53;76.50;102496.16;4995137;28;20492;-81
2022/05/01 11:07:26;;;;;;;3.85;2.40;;;;;;;13.29;76.28;102488.63;4952727;28;20245;-82
2022/05/01 11:09:56;;;;;;;;;;;;;;;13.07;75.39;102489.13;4972270;28;20054;-82
2022/05/01 11:12:26;;;;;;;3.53;2.25;;;;;;;12.97;77.96;102487.16;4997758;28;20389;-82
2022/05/01 11:15:00;;;;;;;4.95;2.40;;;;;;;12.86;77.27;102492.25;5007432;28;20054;-82
2022/05/01 11:17:50;;;;;;;3.97;2.50;;;;;;;12.64;76.57;102488.25;4955521;28;20065;-82
2022/05/01 11:20:19;;;;;;;3.38;2.75;;;;;;;12.56;77.99;102488.97;4964276;28;20527;-81
2022/05/01 11:22:48;;;;;;;2.83;2.38;;;;;;;12.43;78.06;102491.34;4987723;28;20031;-81
2022/05/01 11:25:23;;;;;;;3.38;2.53;;;;;;;12.32;78.86;102495.50;4966545;28;20062;-81
2022/05/01 11:27:55;;;;;;;6.40;3.33;;;;;;;12.26;78.99;102495.38;4976139;28;20053;-81
2022/05/01 11:30:29;;;;;;;5.53;2.45;;;;;;;12.20;80.35;102492.59;4944916;28;20054;-84
2022/05/01 11:33:11;;;;;;;2.67;2.25;;;;;;;12.13;79.87;102490.66;4967908;28;20495;-84
2022/05/01 11:35:58;;;;;;;4.30;2.00;;;;;;;12.15;79.79;102491.59;4956269;28;20047;-83
2022/05/01 11:38:35;;;;;;;2.53;2.15;;;;;;;12.13;79.69;102483.63;4999478;28;20034;-84
2022/05/01 11:41:05;;;;;;;2.58;2.35;;;;;;;12.13;79.21;102495.94;4982307;28;20231;-84
2022/05/01 11:43:34;;;;;;;4.18;2.08;;;;;;;12.07;79.87;102494.94;5005277;28;20030;-84
2022/05/01 11:46:04;;;;;;;2.70;2.03;;;;;;;11.97;78.91;102498.22;4987938;28;20038;-84
2022/05/01 11:48:33;;;;;;;2.78;2.15;;;;;;;11.98;80.03;102492.06;4954856;28;20042;-84
2022/05/01 11:51:04;;;;;;;5.18;1.98;;;;;;;12.01;79.46;102489.50;4960057;28;20046;-83
2022/05/01 11:53:33;;;;;;;4.25;1.80;;;;;;;12.06;79.59;102479.97;4986784;28;20062;-82
2022/05/01 12:04:40;;;;;;;2.08;1.88;;;;;;;12.40;78.12;102478.06;4962910;28;20057;-82
2022/05/01 12:07:19;;;;;;;2.13;1.65;;;;;;;12.37;78.04;102471.81;4941298;28;20248;-85
2022/05/01 12:09:50;;;;;;;2.17;1.73;;;;;;;12.45;78.94;102471.09;4969801;28;20396;-85